Thunder radar more information blitzortung!


Löydät sääaseman tiedot myös:

European Weather Network

Finland Weather Exchange

Weather Underground

AWEKAS



Weather Underground säähistoriasivu

Päivittäin yhteenveto Huhtikuu 9, 2017 Yksiköt:  Englantilaiset    Metriset   Molemmat
« Edellinen Päivä
Seuraava Päivä »
Päivittäin Viikoittain Kuukausittain Vuosittain Mukautettu
  Korkea: Matala: Keskiarvo:
Lämpötila: TemperatureC °F 0.5 °F 5.6 °F
Kastepiste: DewpointC °F -5.5 °F 2.4 °F
Kosteus: Humidity % 59 % 80 %
Tuulen nopeus: WindSpeedKMH mph 0.0 mph 4.9 mph
Tuulenpuuska: WindSpeedGustKMH mph - -
Tuuli:- - SSW
Ilmanpaine: PressurehPa in 1003.6 in -
Sade: 0.0 in    
Historical Graphs
 
 
Taulukkotiedot Huhtikuu 9, 2017
Aika Lämpötila Kastepiste Ilmanpaine Tuuli Tuulen nopeus Tuulenpuuska Kosteus Sademäärä (tunneittain)
TemperatureC °F DewpointC °F PressurehPa in Calm     Humidity % HourlyPrecipMM in
00:00 1.2 °F -3.3 °F 1011.1 in South 1.6 mph 6.4 mph 72 % 0.0 in
00:15 1.5 °F -4.0 °F 1011.4 in South 3.2 mph 8.0 mph 67 % 0.0 in
00:30 1.6 °F -4.5 °F 1011.1 in SSW 1.6 mph 11.3 mph 64 % 0.0 in
00:45 1.7 °F -4.4 °F 1011.1 in Calm   8.0 mph 64 % 0.0 in
01:00 1.6 °F -4.7 °F 1011.1 in Calm   6.4 mph 63 % 0.0 in
01:15 1.7 °F -5.5 °F 1010.7 in SSW 4.8 mph 16.1 mph 59 % 0.0 in
01:30 1.4 °F -4.4 °F 1010.7 in SSW 3.2 mph 9.7 mph 65 % 0.0 in
01:45 1.2 °F -4.6 °F 1010.4 in South 1.6 mph 9.7 mph 65 % 0.0 in
02:00 1.2 °F -4.3 °F 1010.4 in SSW 6.4 mph 17.7 mph 67 % 0.0 in
02:15 0.8 °F -3.8 °F 1010.0 in South 4.8 mph 11.3 mph 71 % 0.0 in
02:30 0.6 °F -3.7 °F 1009.7 in SSW 6.4 mph 20.9 mph 73 % 0.0 in
02:45 0.5 °F -4.0 °F 1009.4 in SSW 3.2 mph 11.3 mph 72 % 0.0 in
03:00 0.6 °F -3.7 °F 1009.4 in South 1.6 mph 8.0 mph 73 % 0.0 in
03:15 0.6 °F -3.7 °F 1009.0 in SSW 1.6 mph 12.9 mph 73 % 0.0 in
03:30 0.8 °F -3.3 °F 1009.0 in SSW 3.2 mph 8.0 mph 74 % 0.0 in
03:45 0.9 °F -3.0 °F 1008.7 in SSW 3.2 mph 9.7 mph 75 % 0.0 in
04:00 1.1 °F -2.5 °F 1008.7 in SSW 1.6 mph 8.0 mph 77 % 0.0 in
04:30 1.4 °F -1.7 °F 1008.4 in SSW 3.2 mph 8.0 mph 80 % 0.0 in
04:45 1.4 °F -1.0 °F 1008.4 in SSW 3.2 mph 8.0 mph 84 % 0.0 in
05:00 1.6 °F -0.5 °F 1008.0 in SSW 6.4 mph 12.9 mph 86 % 0.0 in
05:15 1.7 °F -0.1 °F 1008.0 in SSW 4.8 mph 12.9 mph 88 % 0.0 in
05:30 1.8 °F 0.3 °F 1008.0 in SSW 4.8 mph 14.5 mph 90 % 0.0 in
05:45 1.8 °F 0.4 °F 1008.0 in SSW 6.4 mph 14.5 mph 90 % 0.0 in
06:00 1.9 °F 0.6 °F 1008.0 in SSW 4.8 mph 11.3 mph 91 % 0.0 in
06:15 1.9 °F 0.8 °F 1008.0 in SSW 4.8 mph 12.9 mph 92 % 0.0 in
06:30 1.9 °F 0.9 °F 1008.0 in SW 4.8 mph 14.5 mph 93 % 0.0 in
06:45 2.0 °F 1.1 °F 1008.0 in SSW 4.8 mph 12.9 mph 94 % 0.0 in
07:00 2.0 °F 1.1 °F 1007.7 in SSW 4.8 mph 14.5 mph 94 % 0.0 in
07:15 2.1 °F 1.2 °F 1007.7 in SSW 6.4 mph 14.5 mph 94 % 0.0 in
07:30 2.2 °F 1.4 °F 1007.7 in SSW 6.4 mph 11.3 mph 95 % 0.0 in
07:45 2.2 °F 1.5 °F 1007.7 in SSW 4.8 mph 16.1 mph 95 % 0.0 in
08:00 2.3 °F 1.6 °F 1007.7 in SSW 4.8 mph 9.7 mph 95 % 0.0 in
08:15 2.4 °F 1.7 °F 1007.7 in SSW 4.8 mph 11.3 mph 95 % 0.0 in
08:30 2.6 °F 1.8 °F 1007.7 in SSW 4.8 mph 12.9 mph 95 % 0.0 in
08:45 2.7 °F 2.0 °F 1007.3 in SSW 3.2 mph 12.9 mph 95 % 0.0 in
09:00 3.1 °F 2.5 °F 1007.7 in SSW 4.8 mph 11.3 mph 96 % 0.0 in
09:15 3.4 °F 2.8 °F 1007.7 in SW 4.8 mph 9.7 mph 96 % 0.0 in
09:30 3.7 °F 3.1 °F 1007.7 in SSW 4.8 mph 11.3 mph 96 % 0.0 in
09:45 3.8 °F 3.3 °F 1007.7 in SSW 6.4 mph 16.1 mph 96 % 0.0 in
10:00 4.0 °F 3.4 °F 1007.7 in SSW 6.4 mph 14.5 mph 96 % 0.0 in
10:15 4.2 °F 3.6 °F 1007.7 in SSW 4.8 mph 16.1 mph 96 % 0.0 in
10:30 4.3 °F 3.6 °F 1007.7 in SSW 4.8 mph 11.3 mph 95 % 0.0 in
10:45 4.5 °F 3.8 °F 1007.7 in SSW 4.8 mph 11.3 mph 95 % 0.0 in
11:00 4.7 °F 4.0 °F 1007.7 in SSW 3.2 mph 9.7 mph 95 % 0.0 in
11:15 5.2 °F 4.6 °F 1007.3 in South 4.8 mph 11.3 mph 96 % 0.0 in
11:30 5.9 °F 5.2 °F 1007.3 in SSW 4.8 mph 14.5 mph 95 % 0.0 in
11:45 6.5 °F 5.4 °F 1007.3 in SSW 4.8 mph 14.5 mph 93 % 0.0 in
12:00 7.0 °F 5.8 °F 1007.3 in SSW 4.8 mph 11.3 mph 92 % 0.0 in
12:15 7.4 °F 6.0 °F 1007.3 in SSW 3.2 mph 12.9 mph 91 % 0.0 in
12:30 7.8 °F 6.2 °F 1007.3 in SSW 4.8 mph 14.5 mph 90 % 0.0 in
12:45 8.5 °F 6.6 °F 1007.0 in SSW 6.4 mph 14.5 mph 88 % 0.0 in
13:00 9.3 °F 6.5 °F 1007.0 in SW 4.8 mph 14.5 mph 83 % 0.0 in
13:15 9.8 °F 6.4 °F 1007.0 in SW 4.8 mph 12.9 mph 79 % 0.0 in
13:30 10.1 °F 6.6 °F 1007.0 in WSW 4.8 mph 16.1 mph 79 % 0.0 in
13:45 10.3 °F 6.1 °F 1007.0 in West 4.8 mph 17.7 mph 75 % 0.0 in
14:00 10.6 °F 6.2 °F 1007.0 in WSW 3.2 mph 14.5 mph 74 % 0.0 in
14:15 10.4 °F 6.2 °F 1007.0 in West 3.2 mph 11.3 mph 75 % 0.0 in
14:30 10.3 °F 6.7 °F 1006.7 in SW 4.8 mph 12.9 mph 78 % 0.0 in
14:45 10.6 °F 5.9 °F 1006.7 in SW 4.8 mph 12.9 mph 73 % 0.0 in
15:00 10.8 °F 5.6 °F 1006.3 in West 4.8 mph 16.1 mph 70 % 0.0 in
15:15 11.7 °F 5.7 °F 1006.7 in WSW 4.8 mph 20.9 mph 67 % 0.0 in
15:30 11.9 °F 5.3 °F 1006.3 in SW 6.4 mph 24.1 mph 64 % 0.0 in
15:45 12.2 °F 5.4 °F 1006.3 in West 6.4 mph 17.7 mph 63 % 0.0 in
16:00 12.2 °F 5.1 °F 1006.0 in SW 6.4 mph 14.5 mph 62 % 0.0 in
16:15 11.8 °F 5.7 °F 1006.0 in SSW 6.4 mph 17.7 mph 66 % 0.0 in
16:30 11.3 °F 5.4 °F 1006.0 in SW 6.4 mph 17.7 mph 67 % 0.0 in
16:45 10.7 °F 5.2 °F 1006.0 in SW 6.4 mph 22.5 mph 69 % 0.0 in
17:00 10.1 °F 4.9 °F 1006.0 in SSW 8.0 mph 20.9 mph 70 % 0.0 in
17:15 9.9 °F 4.7 °F 1006.0 in SW 6.4 mph 17.7 mph 70 % 0.0 in
17:30 9.8 °F 4.8 °F 1006.0 in SW 3.2 mph 12.9 mph 71 % 0.0 in
17:45 10.0 °F 5.0 °F 1005.6 in SSW 6.4 mph 14.5 mph 71 % 0.0 in
18:00 10.3 °F 4.9 °F 1005.6 in SSW 6.4 mph 19.3 mph 69 % 0.0 in
18:15 10.5 °F 4.8 °F 1005.6 in SSW 6.4 mph 17.7 mph 68 % 0.0 in
18:30 10.3 °F 4.8 °F 1005.6 in SSW 6.4 mph 17.7 mph 69 % 0.0 in
18:45 10.2 °F 4.7 °F 1005.6 in SW 4.8 mph 16.1 mph 69 % 0.0 in
19:00 9.8 °F 4.6 °F 1005.3 in SW 6.4 mph 17.7 mph 70 % 0.0 in
19:15 9.5 °F 4.5 °F 1005.3 in SSW 6.4 mph 19.3 mph 71 % 0.0 in
19:30 9.3 °F 4.5 °F 1005.3 in SSW 3.2 mph 9.7 mph 72 % 0.0 in
19:45 9.0 °F 4.4 °F 1005.3 in SSW 4.8 mph 16.1 mph 73 % 0.0 in
20:00 8.3 °F 4.3 °F 1005.0 in SW 6.4 mph 16.1 mph 76 % 0.0 in
20:15 7.7 °F 4.3 °F 1005.0 in SSW 6.4 mph 19.3 mph 79 % 0.0 in
20:30 7.4 °F 4.2 °F 1005.0 in SSW 8.0 mph 14.5 mph 80 % 0.0 in
20:45 7.2 °F 4.2 °F 1004.6 in SSW 6.4 mph 16.1 mph 81 % 0.0 in
21:00 7.1 °F 4.2 °F 1004.6 in SSW 4.8 mph 11.3 mph 82 % 0.0 in
21:15 6.9 °F 4.1 °F 1004.6 in SSW 6.4 mph 17.7 mph 82 % 0.0 in
21:30 6.8 °F 4.1 °F 1004.6 in SSW 6.4 mph 16.1 mph 83 % 0.0 in
21:45 6.6 °F 3.9 °F 1004.3 in SSW 6.4 mph 12.9 mph 83 % 0.0 in
22:00 6.4 °F 3.9 °F 1004.3 in SSW 4.8 mph 14.5 mph 84 % 0.0 in
22:15 6.3 °F 3.8 °F 1004.3 in SSW 4.8 mph 11.3 mph 84 % 0.0 in
22:30 6.2 °F 3.9 °F 1003.9 in SW 6.4 mph 12.9 mph 85 % 0.0 in
22:45 6.1 °F 3.7 °F 1003.9 in SSW 6.4 mph 14.5 mph 85 % 0.0 in
23:15 5.7 °F 3.5 °F 1003.9 in SSW 8.0 mph 14.5 mph 86 % 0.0 in
23:30 5.4 °F 3.4 °F 1003.9 in SSW 8.0 mph 16.1 mph 87 % 0.0 in
23:45 5.2 °F 3.3 °F 1003.6 in SSW 6.4 mph 17.7 mph 88 % 0.0 in
Esan sääasema
Terveisin Weather Underground - 2.75 mb

Alkuperäinen skripti  Jim McMurry - jmcmurry@mwt.net Sovitettu myös templatelle  Wim van der Kuil - Leuven-Template.eu

Laitteet joita käytämme:

Sääasema
Davis VP2

Sääasemaohjelma
Cumulus

Sääaseman tietokone
Asus EeePC

Palveluntarjoaja
Suncomet

Davis VP2

Cumulus

Asus EeePC

Suncomet